createdAt,value
2022-08-07T00:00:27.296Z,46.25
2022-08-07T00:01:43.687Z,45.95
2022-08-07T00:02:36.552Z,46.15
2022-08-07T00:03:28.210Z,46.15
2022-08-07T00:04:28.464Z,46.15
2022-08-07T00:05:27.701Z,45.95
2022-08-07T00:06:33.093Z,46.04
2022-08-07T00:07:36.875Z,45.84
2022-08-07T00:08:29.501Z,46.15
2022-08-07T00:09:35.409Z,46.27
2022-08-07T00:10:30.865Z,46.27
2022-08-07T00:11:33.026Z,46.67
2022-08-07T00:12:29.533Z,46.77
2022-08-07T00:13:29.805Z,46.47
2022-08-07T00:14:30.946Z,46.47
2022-08-07T00:15:35.865Z,46.67
2022-08-07T00:16:31.686Z,46.77
2022-08-07T00:17:30.931Z,46.87
2022-08-07T00:18:32.189Z,46.77
2022-08-07T00:20:00.046Z,46.77
2022-08-07T00:20:34.341Z,46.77
2022-08-07T00:21:57.385Z,46.77
2022-08-07T00:22:35.089Z,46.87
2022-08-07T00:23:32.623Z,46.77
2022-08-07T00:24:32.919Z,46.77
2022-08-07T00:25:37.423Z,46.77
2022-08-07T00:26:49.273Z,47.07
2022-08-07T00:27:35.908Z,47.09
2022-08-07T00:28:35.084Z,47.09
2022-08-07T00:29:37.194Z,46.87
2022-08-07T00:30:34.637Z,46.89
2022-08-07T00:31:38.045Z,47.00
2022-08-07T00:32:36.251Z,47.19
2022-08-07T00:33:35.643Z,47.30
2022-08-07T00:34:35.922Z,47.39
2022-08-07T00:35:36.735Z,47.30
2022-08-07T00:36:36.500Z,47.39
2022-08-07T00:37:47.631Z,47.39
2022-08-07T00:38:38.969Z,47.80
2022-08-07T00:39:37.476Z,47.70
2022-08-07T00:40:40.390Z,47.70
2022-08-07T00:41:53.181Z,47.62
2022-08-07T00:42:39.283Z,47.62
2022-08-07T00:44:01.246Z,47.72
2022-08-07T00:44:41.355Z,48.02
2022-08-07T00:45:39.124Z,47.92
2022-08-07T00:46:39.366Z,47.72
2022-08-07T00:48:09.518Z,47.82
2022-08-07T00:48:42.368Z,47.92
2022-08-07T00:50:19.474Z,48.12
2022-08-07T00:50:50.230Z,48.12
2022-08-07T00:51:57.561Z,48.02
2022-08-07T00:52:42.054Z,48.02
2022-08-07T00:53:50.147Z,48.12
2022-08-07T00:54:42.654Z,48.02
2022-08-07T00:56:00.807Z,48.02
2022-08-07T00:56:43.261Z,48.02
2022-08-07T00:57:55.203Z,48.02
2022-08-07T00:58:43.916Z,48.02
2022-08-07T00:59:43.098Z,48.12
2022-08-07T01:00:54.064Z,48.12
2022-08-07T01:01:44.945Z,48.22
2022-08-07T01:02:43.986Z,48.02
2022-08-07T01:03:55.639Z,48.02
2022-08-07T01:04:45.581Z,48.02
2022-08-07T01:05:51.707Z,48.02
2022-08-07T01:06:46.120Z,48.22
2022-08-07T01:07:45.390Z,48.32
2022-08-07T01:08:52.799Z,48.22
2022-08-07T01:10:05.019Z,48.55
2022-08-07T01:10:47.635Z,48.55
2022-08-07T01:12:23.404Z,48.55
2022-08-07T01:12:53.440Z,48.44
2022-08-07T01:13:56.050Z,48.55
2022-08-07T01:14:48.433Z,48.44
2022-08-07T01:16:04.972Z,48.35
2022-08-07T01:16:49.093Z,48.35
2022-08-07T01:17:48.326Z,48.35
2022-08-07T01:18:48.595Z,48.44
2022-08-07T01:19:54.254Z,48.55
2022-08-07T01:20:57.432Z,48.55
2022-08-07T01:21:53.449Z,48.55
2022-08-07T01:23:00.644Z,48.75
2022-08-07T01:23:51.156Z,48.85
2022-08-07T01:24:50.345Z,48.75
2022-08-07T01:25:55.206Z,48.87
2022-08-07T01:26:52.701Z,49.07
2022-08-07T01:27:51.646Z,48.97
2022-08-07T01:28:51.431Z,49.37
2022-08-07T01:29:51.761Z,49.48
2022-08-07T01:30:52.158Z,49.57
2022-08-07T01:31:52.332Z,49.57
2022-08-07T01:32:52.584Z,49.48
2022-08-07T01:33:57.480Z,49.27
2022-08-07T01:34:53.122Z,49.57
2022-08-07T01:36:05.962Z,49.57
2022-08-07T01:36:57.975Z,49.88
2022-08-07T01:37:53.888Z,50.20
2022-08-07T01:38:54.181Z,50.40
2022-08-07T01:39:55.334Z,50.40
2022-08-07T01:40:54.736Z,50.91
2022-08-07T01:42:07.350Z,50.51
2022-08-07T01:42:58.945Z,50.40
2022-08-07T01:43:55.584Z,50.20
2022-08-07T01:44:55.857Z,49.90
2022-08-07T01:45:56.212Z,49.80
2022-08-07T01:46:56.463Z,49.70
2022-08-07T01:48:19.182Z,49.80
2022-08-07T01:48:57.986Z,49.90
2022-08-07T01:49:57.344Z,49.60
2022-08-07T01:50:57.707Z,49.70
2022-08-07T01:52:03.211Z,49.80
2022-08-07T01:52:59.175Z,49.90
2022-08-07T01:54:12.008Z,50.00
2022-08-07T01:54:59.760Z,50.00
2022-08-07T01:55:59.039Z,50.00
2022-08-07T01:56:59.386Z,50.00
2022-08-07T01:58:05.774Z,50.00
2022-08-07T01:59:00.997Z,50.23
2022-08-07T02:00:00.268Z,50.43
2022-08-07T02:01:25.198Z,50.63
2022-08-07T02:02:04.535Z,50.73
2022-08-07T02:03:11.962Z,50.83
2022-08-07T02:04:02.461Z,50.83
2022-08-07T02:05:01.805Z,50.83
2022-08-07T02:06:02.085Z,50.83
2022-08-07T02:07:02.459Z,50.63
2022-08-07T02:08:02.661Z,50.73
2022-08-07T02:09:04.264Z,50.63
2022-08-07T02:10:03.239Z,50.83
2022-08-07T02:11:03.711Z,50.93
2022-08-07T02:12:06.007Z,50.93
2022-08-07T02:13:04.030Z,50.93
2022-08-07T02:14:04.343Z,50.83
2022-08-07T02:15:06.054Z,50.83
2022-08-07T02:16:04.878Z,50.63
2022-08-07T02:17:06.154Z,50.83
2022-08-07T02:18:05.435Z,50.85
2022-08-07T02:20:07.401Z,50.93
2022-08-07T02:20:09.958Z,50.85
2022-08-07T02:21:07.413Z,51.14
2022-08-07T02:22:07.968Z,51.34
2022-08-07T02:23:07.050Z,51.23
2022-08-07T02:24:07.362Z,51.34
2022-08-07T02:25:13.951Z,51.54
2022-08-07T02:26:30.735Z,51.46
2022-08-07T02:27:09.178Z,51.66
2022-08-07T02:28:08.397Z,51.56
2022-08-07T02:29:13.577Z,51.66
2022-08-07T02:30:10.044Z,51.86
2022-08-07T02:31:18.568Z,52.17
2022-08-07T02:32:10.887Z,52.06
2022-08-07T02:33:10.637Z,51.97
2022-08-07T02:34:11.698Z,52.06
2022-08-07T02:35:11.486Z,52.47
2022-08-07T02:36:30.361Z,52.17
2022-08-07T02:37:11.925Z,52.26
2022-08-07T02:38:11.173Z,52.37
2022-08-07T02:39:17.443Z,52.37
2022-08-07T02:40:30.964Z,52.37
2022-08-07T02:41:13.008Z,52.17
2022-08-07T02:42:14.871Z,52.06
2022-08-07T02:43:12.553Z,52.17
2022-08-07T02:44:12.800Z,52.17
2022-08-07T02:46:00.722Z,52.37
2022-08-07T02:46:14.347Z,52.26
2022-08-07T02:47:19.857Z,52.39
2022-08-07T02:48:15.741Z,52.59
2022-08-07T02:49:56.066Z,52.59
2022-08-07T02:50:15.565Z,52.80
2022-08-07T02:51:42.085Z,52.89
2022-08-07T02:52:16.038Z,53.00
2022-08-07T02:53:16.297Z,53.09
2022-08-07T02:54:15.652Z,53.09
2022-08-07T02:55:28.060Z,53.32
2022-08-07T02:56:20.950Z,53.32
2022-08-07T02:57:16.474Z,53.32
2022-08-07T02:58:16.675Z,53.09
2022-08-07T02:59:17.961Z,53.20
2022-08-07T03:00:18.325Z,53.30
2022-08-07T03:01:19.186Z,53.30
2022-08-07T03:02:18.803Z,53.30
2022-08-07T03:03:21.090Z,53.52
2022-08-07T03:04:19.706Z,53.52
2022-08-07T03:05:20.730Z,53.63
2022-08-07T03:06:25.869Z,53.72
2022-08-07T03:07:21.536Z,53.72
2022-08-07T03:08:20.531Z,53.80
2022-08-07T03:09:41.801Z,53.70
2022-08-07T03:10:23.522Z,53.80
2022-08-07T03:11:20.303Z,53.70
2022-08-07T03:12:22.336Z,53.92
2022-08-07T03:13:21.966Z,54.13
2022-08-07T03:14:22.514Z,54.13
2022-08-07T03:15:30.328Z,54.03
2022-08-07T03:16:27.914Z,54.03
2022-08-07T03:17:23.124Z,53.92
2022-08-07T03:18:22.391Z,54.13
2022-08-07T03:19:23.664Z,54.10
2022-08-07T03:20:23.961Z,54.03
2022-08-07T03:21:23.258Z,54.13
2022-08-07T03:22:24.131Z,54.33
2022-08-07T03:23:33.726Z,54.33
2022-08-07T03:24:27.082Z,54.23
2022-08-07T03:25:24.448Z,54.33
2022-08-07T03:26:24.792Z,54.33
2022-08-07T03:27:30.597Z,54.43
2022-08-07T03:28:38.137Z,54.83
2022-08-07T03:29:27.558Z,55.16
2022-08-07T03:30:25.946Z,55.46
2022-08-07T03:31:42.095Z,55.36
2022-08-07T03:32:28.429Z,55.26
2022-08-07T03:33:26.753Z,55.46
2022-08-07T03:34:28.079Z,55.46
2022-08-07T03:35:27.355Z,55.46
2022-08-07T03:36:28.643Z,55.36
2022-08-07T03:37:28.081Z,55.16
2022-08-07T03:38:29.480Z,55.16
2022-08-07T03:39:59.281Z,55.26
2022-08-07T03:40:36.282Z,55.36
2022-08-07T03:41:42.186Z,55.16
2022-08-07T03:42:30.367Z,55.06
2022-08-07T03:43:32.270Z,54.96
2022-08-07T03:44:34.309Z,55.16
2022-08-07T03:45:31.543Z,55.29
2022-08-07T03:46:30.418Z,55.29
2022-08-07T03:47:47.677Z,55.49
2022-08-07T03:48:31.877Z,55.49
2022-08-07T03:49:31.159Z,55.49
2022-08-07T03:50:31.488Z,55.49
2022-08-07T03:51:47.297Z,55.69
2022-08-07T03:52:33.102Z,55.72
2022-08-07T03:54:01.975Z,55.72
2022-08-07T03:54:53.893Z,55.72
2022-08-07T03:55:58.005Z,55.82
2022-08-07T03:56:34.438Z,56.02
2022-08-07T03:58:34.485Z,56.12
2022-08-07T03:59:09.518Z,56.12
2022-08-07T03:59:35.147Z,56.02
2022-08-07T04:00:36.349Z,56.02
2022-08-07T04:01:34.836Z,56.23
2022-08-07T04:02:35.017Z,56.23
2022-08-07T04:03:49.482Z,56.32
2022-08-07T04:04:36.557Z,56.12
2022-08-07T04:05:40.681Z,56.23
2022-08-07T04:06:38.731Z,56.43
2022-08-07T04:07:42.808Z,56.43
2022-08-07T04:08:37.557Z,56.32
2022-08-07T04:09:44.510Z,56.32
2022-08-07T04:10:38.807Z,56.32
2022-08-07T04:12:23.436Z,56.12
2022-08-07T04:12:38.647Z,55.92
2022-08-07T04:14:10.952Z,55.82
2022-08-07T04:14:46.282Z,55.92
2022-08-07T04:15:39.447Z,55.92
2022-08-07T04:16:38.734Z,56.12
2022-08-07T04:18:30.839Z,56.23
2022-08-07T04:18:59.524Z,56.32
2022-08-07T04:19:52.939Z,56.32
2022-08-07T04:20:54.722Z,56.43
2022-08-07T04:21:58.834Z,56.63
2022-08-07T04:22:41.476Z,56.23
2022-08-07T04:23:43.486Z,56.43
2022-08-07T04:24:42.000Z,56.12
2022-08-07T04:25:41.266Z,56.23
2022-08-07T04:26:43.608Z,56.12
2022-08-07T04:27:46.082Z,55.92
2022-08-07T04:28:43.024Z,56.02
2022-08-07T04:29:58.672Z,55.72
2022-08-07T04:30:57.250Z,55.52
2022-08-07T04:32:03.353Z,55.62
2022-08-07T04:32:44.902Z,55.21
2022-08-07T04:33:43.530Z,55.21
2022-08-07T04:34:43.847Z,55.19
2022-08-07T04:35:44.177Z,54.99
2022-08-07T04:36:45.488Z,54.89
2022-08-07T04:38:02.912Z,54.58
2022-08-07T04:38:46.024Z,54.79
2022-08-07T04:39:47.866Z,54.79
2022-08-07T04:40:51.722Z,54.89
2022-08-07T04:41:50.367Z,54.89
2022-08-07T04:42:46.123Z,54.89
2022-08-07T04:44:10.241Z,54.79
2022-08-07T04:45:02.667Z,54.89
2022-08-07T04:46:01.147Z,54.99
2022-08-07T04:47:03.993Z,55.09
2022-08-07T04:47:58.812Z,54.79
2022-08-07T04:48:50.842Z,54.81
2022-08-07T04:50:03.457Z,54.91
2022-08-07T04:50:52.826Z,55.21
2022-08-07T04:51:49.311Z,55.72
2022-08-07T04:52:52.295Z,55.82
2022-08-07T04:54:01.851Z,55.62
2022-08-07T04:54:50.893Z,55.72
2022-08-07T04:58:11.157Z,54.81
2022-08-07T04:58:16.822Z,55.01
2022-08-07T04:58:23.959Z,55.49
2022-08-07T05:00:11.122Z,55.09
2022-08-07T05:00:52.420Z,54.99
2022-08-07T05:01:51.631Z,54.89
2022-08-07T05:02:51.879Z,54.68
2022-08-07T05:04:06.687Z,54.38
2022-08-07T05:04:53.483Z,54.48
2022-08-07T05:05:57.273Z,54.58
2022-08-07T05:06:53.430Z,54.58
2022-08-07T05:07:55.612Z,54.48
2022-08-07T05:09:01.242Z,54.25
2022-08-07T05:09:54.790Z,54.25
2022-08-07T05:10:58.368Z,54.18
2022-08-07T05:11:57.476Z,54.18
2022-08-07T05:12:59.957Z,54.38
2022-08-07T05:14:53.190Z,54.28
2022-08-07T05:15:03.218Z,54.25
2022-08-07T05:15:56.428Z,54.38
2022-08-07T05:16:55.665Z,54.48
2022-08-07T05:17:56.413Z,54.46
2022-08-07T05:18:56.736Z,54.46
2022-08-07T05:19:56.628Z,54.25
2022-08-07T05:20:56.978Z,53.96
2022-08-07T05:21:59.421Z,53.85
2022-08-07T05:22:57.606Z,53.96
2022-08-07T05:23:58.723Z,53.65
2022-08-07T05:24:59.602Z,53.65
2022-08-07T05:26:13.606Z,53.85
2022-08-07T05:26:59.685Z,53.75
2022-08-07T05:28:02.872Z,53.55
2022-08-07T05:29:00.249Z,53.45
2022-08-07T05:29:59.583Z,53.34
2022-08-07T05:30:59.794Z,53.55
2022-08-07T05:32:00.107Z,53.65
2022-08-07T05:33:00.407Z,53.65
2022-08-07T05:34:04.499Z,53.45
2022-08-07T05:35:02.218Z,53.12
2022-08-07T05:36:01.204Z,53.22
2022-08-07T05:37:01.466Z,52.82
2022-08-07T05:38:08.637Z,53.02
2022-08-07T05:40:05.223Z,53.02
2022-08-07T05:40:16.858Z,53.02
2022-08-07T05:41:05.544Z,52.92
2022-08-07T05:42:08.796Z,52.72
2022-08-07T05:43:04.220Z,52.72
2022-08-07T05:44:11.989Z,52.42
2022-08-07T05:45:14.326Z,52.82
2022-08-07T05:46:05.159Z,52.42
2022-08-07T05:47:17.915Z,52.11
2022-08-07T05:48:06.294Z,51.89
2022-08-07T05:49:11.987Z,51.89
2022-08-07T05:50:06.256Z,51.99
2022-08-07T05:51:05.481Z,51.68
2022-08-07T05:52:05.759Z,51.48
2022-08-07T05:53:05.974Z,51.48
2022-08-07T05:54:09.215Z,51.68
2022-08-07T05:55:10.923Z,51.79
2022-08-07T05:56:06.943Z,51.79
2022-08-07T05:57:07.045Z,51.68
2022-08-07T05:58:07.304Z,51.68
2022-08-07T05:59:07.555Z,51.79
2022-08-07T06:00:07.841Z,51.79
2022-08-07T06:01:14.803Z,51.36
2022-08-07T06:02:09.584Z,50.96
2022-08-07T06:03:08.808Z,51.06
2022-08-07T06:04:09.100Z,51.16
2022-08-07T06:05:10.871Z,50.85
2022-08-07T06:06:10.735Z,50.76
2022-08-07T06:07:11.039Z,50.76
2022-08-07T06:08:30.395Z,50.76
2022-08-07T06:09:11.640Z,50.65
2022-08-07T06:10:11.251Z,50.53
2022-08-07T06:11:11.288Z,50.53
2022-08-07T06:12:12.466Z,50.33
2022-08-07T06:13:13.691Z,50.31
2022-08-07T06:14:21.442Z,50.40
2022-08-07T06:15:15.950Z,50.40
2022-08-07T06:16:13.487Z,50.20
2022-08-07T06:17:13.072Z,50.20
2022-08-07T06:18:13.844Z,49.98
2022-08-07T06:19:17.969Z,49.88
2022-08-07T06:20:25.416Z,49.98
2022-08-07T06:22:11.808Z,49.88
2022-08-07T06:22:24.062Z,49.18
2022-08-07T06:23:46.047Z,49.18
2022-08-07T06:24:45.613Z,49.18
2022-08-07T06:25:16.438Z,48.97
2022-08-07T06:26:15.662Z,48.87
2022-08-07T06:27:22.939Z,49.07
2022-08-07T06:28:17.369Z,49.27
2022-08-07T06:29:17.673Z,49.48
2022-08-07T06:30:32.279Z,49.37
2022-08-07T06:31:18.229Z,49.76
2022-08-07T06:32:17.466Z,49.45
2022-08-07T06:33:17.779Z,49.25
2022-08-07T06:34:20.542Z,49.25
2022-08-07T06:35:18.425Z,49.15
2022-08-07T06:36:34.786Z,48.85
2022-08-07T06:37:20.467Z,48.65
2022-08-07T06:38:20.701Z,48.65
2022-08-07T06:40:17.061Z,48.72
2022-08-07T06:40:21.470Z,48.63
2022-08-07T06:42:00.417Z,48.43
2022-08-07T06:42:32.865Z,48.43
2022-08-07T06:43:22.421Z,48.22
2022-08-07T06:44:21.145Z,48.32
2022-08-07T06:45:21.340Z,48.32
2022-08-07T06:46:31.352Z,48.10
2022-08-07T06:47:22.967Z,48.10
2022-08-07T06:48:25.028Z,48.00
2022-08-07T06:49:22.447Z,47.80
2022-08-07T06:50:22.679Z,47.58
2022-08-07T06:51:31.360Z,47.47
2022-08-07T06:52:31.614Z,47.27
2022-08-07T06:54:24.986Z,47.27
2022-08-07T06:55:27.359Z,47.38
2022-08-07T06:55:32.301Z,47.58
2022-08-07T06:56:25.630Z,47.58
2022-08-07T06:57:39.327Z,47.27
2022-08-07T06:58:27.435Z,47.07
2022-08-07T07:00:12.088Z,47.15
2022-08-07T07:00:27.393Z,47.05
2022-08-07T07:01:26.019Z,46.75
2022-08-07T07:02:54.003Z,46.55
2022-08-07T07:03:47.658Z,46.85
2022-08-07T07:04:32.524Z,47.05
2022-08-07T07:06:03.041Z,47.05
2022-08-07T07:06:28.431Z,46.95
2022-08-07T07:08:00.107Z,46.62
2022-08-07T07:08:29.172Z,46.62
2022-08-07T07:09:31.265Z,46.62
2022-08-07T07:10:28.516Z,46.62
2022-08-07T07:12:08.496Z,46.61
2022-08-07T07:12:33.419Z,46.50
2022-08-07T07:13:55.985Z,46.50
2022-08-07T07:14:30.635Z,46.30
2022-08-07T07:15:35.891Z,46.11
2022-08-07T07:16:31.269Z,46.00
2022-08-07T07:17:39.164Z,46.20
2022-08-07T07:18:47.214Z,46.18
2022-08-07T07:19:57.137Z,45.98
2022-08-07T07:20:32.398Z,45.88
2022-08-07T07:22:05.262Z,46.18
2022-08-07T07:22:35.765Z,45.96
2022-08-07T07:24:09.998Z,45.36
2022-08-07T07:24:33.468Z,45.26
2022-08-07T07:26:32.926Z,45.36
2022-08-07T07:26:37.283Z,45.36
2022-08-07T07:27:35.805Z,45.56
2022-08-07T07:28:48.389Z,45.46
2022-08-07T07:29:56.197Z,45.36
2022-08-07T07:30:38.281Z,45.36
2022-08-07T07:31:39.792Z,45.36
2022-08-07T07:32:35.570Z,45.06
2022-08-07T07:33:34.892Z,45.04
2022-08-07T07:34:35.137Z,45.04
2022-08-07T07:35:44.060Z,45.04
2022-08-07T07:36:36.692Z,45.14
2022-08-07T07:37:47.155Z,45.14
2022-08-07T07:38:37.345Z,45.34
2022-08-07T07:39:51.965Z,45.34
2022-08-07T07:40:37.911Z,45.43
2022-08-07T07:42:08.498Z,45.21
2022-08-07T07:42:38.475Z,45.21
2022-08-07T07:43:47.762Z,45.51
2022-08-07T07:44:39.092Z,45.42
2022-08-07T07:46:40.330Z,45.21
2022-08-07T07:46:54.092Z,45.21
2022-08-07T07:47:42.972Z,45.21
2022-08-07T07:48:40.266Z,45.01
2022-08-07T07:50:33.877Z,45.00
2022-08-07T07:50:40.771Z,44.79
2022-08-07T07:51:57.447Z,44.59
2022-08-07T07:52:41.333Z,44.47
2022-08-07T07:53:52.184Z,44.20
2022-08-07T07:54:50.771Z,44.29
2022-08-07T07:55:45.636Z,44.29
2022-08-07T07:56:42.517Z,44.47
2022-08-07T07:57:50.388Z,44.57
2022-08-07T07:58:43.005Z,44.67
2022-08-07T07:59:52.848Z,44.47
2022-08-07T08:00:43.491Z,44.37
2022-08-07T08:02:03.464Z,44.37
2022-08-07T08:03:01.005Z,44.35
2022-08-07T08:04:09.572Z,44.15
2022-08-07T08:04:44.670Z,44.05
2022-08-07T08:05:55.163Z,44.63
2022-08-07T08:06:52.034Z,44.73
2022-08-07T08:07:51.825Z,44.43
2022-08-07T08:08:45.773Z,43.91
2022-08-07T08:09:52.122Z,43.81
2022-08-07T08:10:46.379Z,43.49
2022-08-07T08:11:59.492Z,43.09
2022-08-07T08:12:52.423Z,42.89
2022-08-07T08:13:55.486Z,42.67
2022-08-07T08:14:47.514Z,42.35
2022-08-07T08:15:59.181Z,42.15
2022-08-07T08:16:50.490Z,42.03
2022-08-07T08:17:57.527Z,42.13
2022-08-07T08:18:50.492Z,41.31
2022-08-07T08:20:17.569Z,41.22
2022-08-07T08:20:49.084Z,41.12
2022-08-07T08:21:58.585Z,40.60
2022-08-07T08:22:55.854Z,40.08
2022-08-07T08:23:49.978Z,39.76
2022-08-07T08:24:57.398Z,39.67
2022-08-07T08:25:50.521Z,39.45
2022-08-07T08:26:50.310Z,39.45
2022-08-07T08:27:56.713Z,38.81
2022-08-07T08:28:51.387Z,38.52
2022-08-07T08:29:54.484Z,38.20
2022-08-07T08:30:55.694Z,37.55
2022-08-07T08:32:17.591Z,36.52
2022-08-07T08:32:52.522Z,35.82
2022-08-07T08:33:55.781Z,35.28
2022-08-07T08:34:53.116Z,35.07
2022-08-07T08:35:52.355Z,35.27
2022-08-07T08:36:57.794Z,34.64
2022-08-07T08:38:00.651Z,34.34
2022-08-07T08:38:54.223Z,34.03
2022-08-07T08:39:55.120Z,33.94
2022-08-07T08:40:54.723Z,33.62
2022-08-07T08:41:58.306Z,33.41
2022-08-07T08:42:55.370Z,32.80
2022-08-07T08:43:58.962Z,32.38
2022-08-07T08:44:54.972Z,32.28
2022-08-07T08:45:59.129Z,32.07
2022-08-07T08:46:56.490Z,32.08
2022-08-07T08:47:55.743Z,32.38
2022-08-07T08:48:55.967Z,32.17
2022-08-07T08:50:04.779Z,32.24
2022-08-07T08:50:57.573Z,31.74
2022-08-07T08:52:14.107Z,31.43
2022-08-07T08:52:58.168Z,31.02
2022-08-07T08:53:57.462Z,30.81
2022-08-07T08:54:57.854Z,30.42
2022-08-07T08:55:59.140Z,30.42
2022-08-07T08:56:58.465Z,30.32
2022-08-07T08:57:58.689Z,30.32
2022-08-07T08:58:58.950Z,30.11
2022-08-07T09:00:00.281Z,29.60
2022-08-07T09:01:00.843Z,29.59
2022-08-07T09:01:59.950Z,29.59
2022-08-07T09:03:00.839Z,29.69
2022-08-07T09:04:00.351Z,29.59
2022-08-07T09:05:00.592Z,29.49
2022-08-07T09:06:00.996Z,29.58
2022-08-07T09:07:01.217Z,29.36
2022-08-07T09:08:01.616Z,29.58
2022-08-07T09:09:01.965Z,29.48
2022-08-07T09:10:03.538Z,29.69
2022-08-07T09:11:02.535Z,29.58
2022-08-07T09:12:30.194Z,29.48
2022-08-07T09:13:04.094Z,29.58
2022-08-07T09:14:03.322Z,29.68
2022-08-07T09:16:20.036Z,29.17
2022-08-07T09:16:23.995Z,28.96
2022-08-07T09:17:05.333Z,28.96
2022-08-07T09:18:11.490Z,28.86
2022-08-07T09:19:07.148Z,28.97
2022-08-07T09:20:26.734Z,29.07
2022-08-07T09:21:06.207Z,29.16
2022-08-07T09:24:27.469Z,29.35
2022-08-07T09:24:32.047Z,29.27
2022-08-07T09:24:32.969Z,29.06
2022-08-07T09:25:14.611Z,28.65
2022-08-07T09:26:07.673Z,28.86
2022-08-07T09:27:11.984Z,28.86
2022-08-07T09:29:24.349Z,28.75
2022-08-07T09:30:05.418Z,28.94
2022-08-07T09:30:09.352Z,28.54
2022-08-07T09:31:08.419Z,28.42
2022-08-07T09:32:16.996Z,28.01
2022-08-07T09:33:16.736Z,28.11
2022-08-07T09:34:09.954Z,27.91
2022-08-07T09:36:04.168Z,28.11
2022-08-07T09:36:10.492Z,28.11
2022-08-07T09:37:09.719Z,28.14
2022-08-07T09:38:10.326Z,28.33
2022-08-07T09:39:27.360Z,28.33
2022-08-07T09:40:11.665Z,28.43
2022-08-07T09:41:10.910Z,28.54
2022-08-07T09:42:12.843Z,28.63
2022-08-07T09:43:12.478Z,28.22
2022-08-07T09:44:19.391Z,28.12
2022-08-07T09:47:37.204Z,28.32
2022-08-07T09:47:51.238Z,28.00
2022-08-07T09:47:52.194Z,28.01
2022-08-07T09:48:14.591Z,28.11
2022-08-07T09:50:01.222Z,27.81
2022-08-07T09:50:19.622Z,27.80
2022-08-07T09:52:16.073Z,28.01
2022-08-07T09:52:33.361Z,28.12
2022-08-07T09:53:15.396Z,28.74
2022-08-07T09:54:16.257Z,28.72
2022-08-07T09:55:16.884Z,28.52
2022-08-07T09:56:19.686Z,28.42
2022-08-07T09:57:16.446Z,28.52
2022-08-07T09:58:15.742Z,28.63
2022-08-07T09:59:15.948Z,28.53
2022-08-07T10:00:18.769Z,28.92
2022-08-07T10:01:51.099Z,28.61
2022-08-07T10:02:17.955Z,28.59
2022-08-07T10:04:06.115Z,28.09
2022-08-07T10:04:18.528Z,27.91
2022-08-07T10:05:18.751Z,28.11
2022-08-07T10:06:19.142Z,27.80
2022-08-07T10:07:24.448Z,27.91
2022-08-07T10:08:19.676Z,27.80
2022-08-07T10:09:23.638Z,27.59
2022-08-07T10:10:21.506Z,27.80
2022-08-07T10:12:02.358Z,27.90
2022-08-07T10:12:21.764Z,27.59
2022-08-07T10:13:55.099Z,27.30
2022-08-07T10:14:23.076Z,27.69
2022-08-07T10:15:21.697Z,27.48
2022-08-07T10:16:21.002Z,27.59
2022-08-07T10:17:21.270Z,27.39
2022-08-07T10:18:21.567Z,26.97
2022-08-07T10:19:23.177Z,26.47
2022-08-07T10:20:30.254Z,26.97
2022-08-07T10:22:12.649Z,26.68
2022-08-07T10:22:24.963Z,26.46
2022-08-07T10:24:05.724Z,26.17
2022-08-07T10:24:24.097Z,26.25
2022-08-07T10:25:23.322Z,26.37
2022-08-07T10:26:24.997Z,26.79
2022-08-07T10:27:23.839Z,26.87
2022-08-07T10:28:24.151Z,26.78
2022-08-07T10:29:24.409Z,26.68
2022-08-07T10:30:26.496Z,26.50
2022-08-07T10:31:24.955Z,26.40
2022-08-07T10:32:51.589Z,26.80
2022-08-07T10:34:05.833Z,27.31
2022-08-07T10:34:32.218Z,26.90
2022-08-07T10:35:27.082Z,26.80
2022-08-07T10:36:29.827Z,27.52
2022-08-07T10:38:00.737Z,28.75
2022-08-07T10:38:35.963Z,30.27
2022-08-07T10:39:42.192Z,29.88
2022-08-07T10:40:30.379Z,30.70
2022-08-07T10:41:53.052Z,30.07
2022-08-07T10:42:31.252Z,30.29
2022-08-07T10:43:34.169Z,30.80
2022-08-07T10:44:38.568Z,29.66
2022-08-07T10:45:45.423Z,28.83
2022-08-07T10:46:30.212Z,28.23
2022-08-07T10:47:52.576Z,27.62
2022-08-07T10:48:34.909Z,26.81
2022-08-07T10:49:49.772Z,26.50
2022-08-07T10:50:31.278Z,26.19
2022-08-07T10:51:57.512Z,25.99
2022-08-07T10:52:33.919Z,26.28
2022-08-07T10:53:44.001Z,26.30
2022-08-07T10:54:32.318Z,26.19
2022-08-07T10:55:38.114Z,25.69
2022-08-07T10:56:32.840Z,25.68
2022-08-07T10:57:34.790Z,24.98
2022-08-07T10:58:36.627Z,25.36
2022-08-07T10:59:37.255Z,25.18
2022-08-07T11:00:39.774Z,25.08
2022-08-07T11:01:35.816Z,24.97
2022-08-07T11:02:35.198Z,25.08
2022-08-07T11:03:37.923Z,25.49
2022-08-07T11:04:37.743Z,25.29
2022-08-07T11:05:35.475Z,24.90
2022-08-07T11:06:35.642Z,23.93
2022-08-07T11:07:58.952Z,23.35
2022-08-07T11:08:36.096Z,22.94
2022-08-07T11:10:10.303Z,22.63
2022-08-07T11:10:37.360Z,22.24
2022-08-07T11:11:36.124Z,22.14
2022-08-07T11:12:36.305Z,22.34
2022-08-07T11:14:43.880Z,22.23
2022-08-07T11:14:46.518Z,22.34
2022-08-07T11:15:38.133Z,21.84
2022-08-07T11:16:37.444Z,21.75
2022-08-07T11:17:43.465Z,22.69
2022-08-07T11:18:38.944Z,23.19
2022-08-07T11:19:38.164Z,23.19
2022-08-07T11:20:38.398Z,23.90
2022-08-07T11:21:40.868Z,23.91
2022-08-07T11:22:45.593Z,23.82
2022-08-07T11:23:40.298Z,23.60
2022-08-07T11:24:39.556Z,23.58
2022-08-07T11:25:48.275Z,23.29
2022-08-07T11:26:48.335Z,22.88
2022-08-07T11:28:03.246Z,23.28
2022-08-07T11:28:41.706Z,23.07
2022-08-07T11:29:47.300Z,22.47
2022-08-07T11:30:42.482Z,22.77
2022-08-07T11:31:41.513Z,22.67
2022-08-07T11:32:41.858Z,22.78
2022-08-07T11:33:53.893Z,22.99
2022-08-07T11:34:43.402Z,23.10
2022-08-07T11:36:00.239Z,23.61
2022-08-07T11:36:44.067Z,23.30
2022-08-07T11:37:58.002Z,23.73
2022-08-07T11:38:50.621Z,23.63
2022-08-07T11:40:00.372Z,23.03
2022-08-07T11:40:49.486Z,23.24
2022-08-07T11:42:02.487Z,23.02
2022-08-07T11:42:45.933Z,22.62
2022-08-07T11:44:11.052Z,22.51
2022-08-07T11:44:52.641Z,22.61
2022-08-07T11:45:53.130Z,22.69
2022-08-07T11:46:48.666Z,22.31
2022-08-07T11:47:56.662Z,22.19
2022-08-07T11:49:28.582Z,22.20
2022-08-07T11:50:11.261Z,22.81
2022-08-07T11:50:57.208Z,23.02
2022-08-07T11:51:48.558Z,23.54
2022-08-07T11:52:47.872Z,23.02
2022-08-07T11:54:00.686Z,22.81
2022-08-07T11:54:54.889Z,22.71
2022-08-07T11:56:25.484Z,22.81
2022-08-07T11:56:53.183Z,23.23
2022-08-07T11:57:59.506Z,23.22
2022-08-07T11:58:50.674Z,23.11
2022-08-07T12:00:11.140Z,22.91
2022-08-07T12:01:00.228Z,22.61
2022-08-07T12:01:58.791Z,22.81
2022-08-07T12:02:52.433Z,23.03
2022-08-07T12:03:51.000Z,23.23
2022-08-07T12:04:51.265Z,23.34
2022-08-07T12:05:51.649Z,23.44
2022-08-07T12:06:59.064Z,23.85
2022-08-07T12:07:53.757Z,24.15
2022-08-07T12:08:53.498Z,24.05
2022-08-07T12:09:52.860Z,24.07
2022-08-07T12:11:08.459Z,24.07
2022-08-07T12:12:10.554Z,24.18
2022-08-07T12:12:54.646Z,24.27
2022-08-07T12:13:53.930Z,24.40
2022-08-07T12:14:56.383Z,24.51
2022-08-07T12:16:05.796Z,24.91
2022-08-07T12:16:55.778Z,25.12
2022-08-07T12:17:59.516Z,25.72
2022-08-07T12:18:56.365Z,25.93
2022-08-07T12:20:03.472Z,26.12
2022-08-07T12:20:56.998Z,26.12
2022-08-07T12:22:37.873Z,26.12
2022-08-07T12:22:58.653Z,26.34
2022-08-07T12:24:07.465Z,26.34
2022-08-07T12:25:02.311Z,26.43
2022-08-07T12:26:02.933Z,26.64
2022-08-07T12:26:58.747Z,26.54
2022-08-07T12:28:09.646Z,26.84
2022-08-07T12:29:00.622Z,26.93
2022-08-07T12:29:58.720Z,26.93
2022-08-07T12:30:59.139Z,26.84
2022-08-07T12:32:04.133Z,26.74
2022-08-07T12:33:00.593Z,26.64
2022-08-07T12:34:01.684Z,26.64
2022-08-07T12:35:00.971Z,26.95
2022-08-07T12:36:02.084Z,26.93
2022-08-07T12:37:00.833Z,26.85
2022-08-07T12:38:11.517Z,27.05
2022-08-07T12:39:02.445Z,27.06
2022-08-07T12:40:01.614Z,27.26
2022-08-07T12:41:01.968Z,27.36
2022-08-07T12:42:02.401Z,27.27
2022-08-07T12:43:02.993Z,27.27
2022-08-07T12:44:05.614Z,27.47
2022-08-07T12:45:05.694Z,27.58
2022-08-07T12:46:03.293Z,27.58
2022-08-07T12:47:03.545Z,27.58
2022-08-07T12:48:03.878Z,27.48
2022-08-07T12:49:10.105Z,27.58
2022-08-07T12:50:34.510Z,27.58
2022-08-07T12:51:17.431Z,27.58
2022-08-07T12:52:14.601Z,27.58
2022-08-07T12:53:18.073Z,27.58
2022-08-07T12:54:38.170Z,27.57
2022-08-07T12:55:09.617Z,27.37
2022-08-07T12:56:09.159Z,27.27
2022-08-07T12:57:09.430Z,27.27